sensor_id;sensor_type;location;lat;lon;timestamp;pressure;altitude;pressure_sealevel;temperature;humidity
4528;BME280;62320;51.520;6.818;2022-08-25T00:00:48;101201.19;;;25.27;47.08
4528;BME280;62320;51.520;6.818;2022-08-25T00:05:50;101175.81;;;25.08;47.03
4528;BME280;62320;51.520;6.818;2022-08-25T00:10:51;101213.91;;;25.21;46.90
4528;BME280;62320;51.520;6.818;2022-08-25T00:16:04;101201.16;;;25.12;47.05
4528;BME280;62320;51.520;6.818;2022-08-25T00:21:05;101177.56;;;24.92;47.67
4528;BME280;62320;51.520;6.818;2022-08-25T00:26:08;101206.16;;;25.01;48.08
4528;BME280;62320;51.520;6.818;2022-08-25T00:31:12;101203.06;;;24.93;46.92
4528;BME280;62320;51.520;6.818;2022-08-25T00:36:16;101207.44;;;24.76;47.79
4528;BME280;62320;51.520;6.818;2022-08-25T00:41:21;101208.41;;;24.74;47.33
4528;BME280;62320;51.520;6.818;2022-08-25T00:46:28;101206.94;;;24.51;48.90
4528;BME280;62320;51.520;6.818;2022-08-25T00:51:36;101208.75;;;24.51;50.15
4528;BME280;62320;51.520;6.818;2022-08-25T00:56:39;101213.31;;;24.30;48.68
4528;BME280;62320;51.520;6.818;2022-08-25T01:01:41;101219.28;;;24.34;48.23
4528;BME280;62320;51.520;6.818;2022-08-25T01:06:43;101206.63;;;24.04;49.00
4528;BME280;62320;51.520;6.818;2022-08-25T01:11:46;101208.00;;;24.13;48.18
4528;BME280;62320;51.520;6.818;2022-08-25T01:16:47;101199.94;;;23.97;48.79
4528;BME280;62320;51.520;6.818;2022-08-25T01:21:55;101203.09;;;23.87;49.75
4528;BME280;62320;51.520;6.818;2022-08-25T01:26:56;101212.16;;;23.81;50.47
4528;BME280;62320;51.520;6.818;2022-08-25T01:32:04;101215.09;;;23.75;49.56
4528;BME280;62320;51.520;6.818;2022-08-25T01:37:07;101201.84;;;23.39;52.62
4528;BME280;62320;51.520;6.818;2022-08-25T01:42:28;101218.50;;;23.40;51.28
4528;BME280;62320;51.520;6.818;2022-08-25T01:47:33;101221.91;;;23.23;51.25
4528;BME280;62320;51.520;6.818;2022-08-25T01:52:54;101229.84;;;23.22;53.70
4528;BME280;62320;51.520;6.818;2022-08-25T01:57:58;101232.06;;;23.12;52.21
4528;BME280;62320;51.520;6.818;2022-08-25T02:03:00;101223.63;;;23.04;52.05
4528;BME280;62320;51.520;6.818;2022-08-25T02:08:02;101230.47;;;23.08;51.22
4528;BME280;62320;51.520;6.818;2022-08-25T02:13:05;101222.38;;;22.93;52.40
4528;BME280;62320;51.520;6.818;2022-08-25T02:18:09;101215.16;;;22.78;52.39
4528;BME280;62320;51.520;6.818;2022-08-25T02:23:10;101220.09;;;22.85;51.36
4528;BME280;62320;51.520;6.818;2022-08-25T02:28:12;101220.31;;;22.59;52.96
4528;BME280;62320;51.520;6.818;2022-08-25T02:33:14;101232.34;;;22.66;52.26
4528;BME280;62320;51.520;6.818;2022-08-25T02:38:15;101219.50;;;22.37;52.56
4528;BME280;62320;51.520;6.818;2022-08-25T02:43:17;101231.69;;;22.39;54.84
4528;BME280;62320;51.520;6.818;2022-08-25T02:48:18;101218.53;;;22.18;57.79
4528;BME280;62320;51.520;6.818;2022-08-25T02:53:20;101218.03;;;22.30;54.45
4528;BME280;62320;51.520;6.818;2022-08-25T02:58:21;101217.06;;;22.11;56.58
4528;BME280;62320;51.520;6.818;2022-08-25T03:03:23;101213.31;;;21.94;58.50
4528;BME280;62320;51.520;6.818;2022-08-25T03:08:25;101210.81;;;21.91;58.76
4528;BME280;62320;51.520;6.818;2022-08-25T03:13:27;101197.38;;;21.76;57.59
4528;BME280;62320;51.520;6.818;2022-08-25T03:18:28;101198.09;;;21.79;58.93
4528;BME280;62320;51.520;6.818;2022-08-25T03:23:31;101182.19;;;21.82;55.21
4528;BME280;62320;51.520;6.818;2022-08-25T03:28:32;101175.78;;;21.89;56.81
4528;BME280;62320;51.520;6.818;2022-08-25T03:33:34;101187.03;;;21.93;54.69
4528;BME280;62320;51.520;6.818;2022-08-25T03:38:35;101172.81;;;21.75;55.02
4528;BME280;62320;51.520;6.818;2022-08-25T03:43:38;101183.81;;;21.86;56.65
4528;BME280;62320;51.520;6.818;2022-08-25T03:48:40;101173.50;;;21.80;54.04
4528;BME280;62320;51.520;6.818;2022-08-25T03:53:41;101179.66;;;21.79;54.31
4528;BME280;62320;51.520;6.818;2022-08-25T03:58:43;101176.69;;;21.67;56.41
4528;BME280;62320;51.520;6.818;2022-08-25T04:03:45;101168.13;;;21.60;55.25
4528;BME280;62320;51.520;6.818;2022-08-25T04:08:47;101170.50;;;21.45;59.38
4528;BME280;62320;51.520;6.818;2022-08-25T04:13:49;101154.97;;;21.39;59.33
4528;BME280;62320;51.520;6.818;2022-08-25T04:18:55;101157.84;;;21.54;54.21
4528;BME280;62320;51.520;6.818;2022-08-25T04:23:57;101150.91;;;21.53;54.37
4528;BME280;62320;51.520;6.818;2022-08-25T04:28:59;101150.06;;;21.51;55.29
4528;BME280;62320;51.520;6.818;2022-08-25T04:34:03;101151.78;;;21.52;54.99
4528;BME280;62320;51.520;6.818;2022-08-25T04:39:16;101140.06;;;21.38;55.79
4528;BME280;62320;51.520;6.818;2022-08-25T04:44:20;101145.50;;;21.33;59.29
4528;BME280;62320;51.520;6.818;2022-08-25T04:49:21;101145.19;;;21.19;57.23
4528;BME280;62320;51.520;6.818;2022-08-25T04:54:23;101167.06;;;21.19;59.23
4528;BME280;62320;51.520;6.818;2022-08-25T04:59:25;101158.84;;;21.28;55.42
4528;BME280;62320;51.520;6.818;2022-08-25T05:04:33;101160.50;;;21.31;56.27
4528;BME280;62320;51.520;6.818;2022-08-25T05:09:35;101154.41;;;21.30;58.57
4528;BME280;62320;51.520;6.818;2022-08-25T05:14:38;101150.84;;;21.31;60.14
4528;BME280;62320;51.520;6.818;2022-08-25T05:19:39;101156.78;;;21.37;56.13
4528;BME280;62320;51.520;6.818;2022-08-25T05:24:41;101153.22;;;21.38;56.12
4528;BME280;62320;51.520;6.818;2022-08-25T05:29:42;101153.13;;;21.41;56.10
4528;BME280;62320;51.520;6.818;2022-08-25T05:34:44;101152.31;;;21.39;55.82
4528;BME280;62320;51.520;6.818;2022-08-25T05:39:45;101151.00;;;21.50;57.48
4528;BME280;62320;51.520;6.818;2022-08-25T05:44:47;101136.13;;;21.49;56.42
4528;BME280;62320;51.520;6.818;2022-08-25T05:49:48;101145.13;;;21.65;57.61
4528;BME280;62320;51.520;6.818;2022-08-25T05:54:50;101144.16;;;21.68;58.77
4528;BME280;62320;51.520;6.818;2022-08-25T05:59:51;101137.97;;;21.69;56.88
4528;BME280;62320;51.520;6.818;2022-08-25T06:04:53;101141.84;;;21.82;58.15
4528;BME280;62320;51.520;6.818;2022-08-25T06:09:54;101136.41;;;21.86;56.59
4528;BME280;62320;51.520;6.818;2022-08-25T06:14:55;101142.97;;;21.98;57.27
4528;BME280;62320;51.520;6.818;2022-08-25T06:19:57;101133.03;;;22.05;56.88
4528;BME280;62320;51.520;6.818;2022-08-25T06:24:58;101125.06;;;22.06;57.64
4528;BME280;62320;51.520;6.818;2022-08-25T06:30:05;101144.53;;;22.24;56.35
4528;BME280;62320;51.520;6.818;2022-08-25T06:35:11;101131.75;;;22.35;58.83
4528;BME280;62320;51.520;6.818;2022-08-25T06:40:14;101160.78;;;22.53;55.67
4528;BME280;62320;51.520;6.818;2022-08-25T06:45:16;101160.63;;;22.78;56.55
4528;BME280;62320;51.520;6.818;2022-08-25T06:50:18;101163.91;;;23.03;56.69
4528;BME280;62320;51.520;6.818;2022-08-25T06:55:20;101154.84;;;23.27;56.01
4528;BME280;62320;51.520;6.818;2022-08-25T07:00:21;101165.72;;;23.59;56.78
4528;BME280;62320;51.520;6.818;2022-08-25T07:05:30;101165.94;;;23.90;55.76
4528;BME280;62320;51.520;6.818;2022-08-25T07:10:46;101164.25;;;24.25;56.14
4528;BME280;62320;51.520;6.818;2022-08-25T07:15:52;101167.91;;;24.56;55.94
4528;BME280;62320;51.520;6.818;2022-08-25T07:20:54;101170.94;;;24.83;55.56
4528;BME280;62320;51.520;6.818;2022-08-25T07:26:28;101174.06;;;25.07;54.87
4528;BME280;62320;51.520;6.818;2022-08-25T07:31:38;101165.25;;;25.39;53.93
4528;BME280;62320;51.520;6.818;2022-08-25T07:36:40;101141.63;;;25.52;53.08
4528;BME280;62320;51.520;6.818;2022-08-25T07:41:42;101158.34;;;25.83;53.67
4528;BME280;62320;51.520;6.818;2022-08-25T07:46:44;101150.47;;;25.97;53.23
4528;BME280;62320;51.520;6.818;2022-08-25T07:51:45;101139.31;;;26.22;52.66
4528;BME280;62320;51.520;6.818;2022-08-25T07:57:06;101142.97;;;26.49;52.00
4528;BME280;62320;51.520;6.818;2022-08-25T08:02:10;101142.72;;;26.68;51.78
4528;BME280;62320;51.520;6.818;2022-08-25T08:07:22;101153.00;;;26.88;51.76
4528;BME280;62320;51.520;6.818;2022-08-25T08:12:35;101157.56;;;27.00;52.99
4528;BME280;62320;51.520;6.818;2022-08-25T08:17:37;101146.28;;;27.25;51.69
4528;BME280;62320;51.520;6.818;2022-08-25T08:22:41;101142.38;;;27.44;50.17
4528;BME280;62320;51.520;6.818;2022-08-25T08:27:43;101131.16;;;27.53;50.01
4528;BME280;62320;51.520;6.818;2022-08-25T08:32:46;101139.16;;;27.80;49.15
4528;BME280;62320;51.520;6.818;2022-08-25T08:38:10;101110.44;;;27.85;51.54
4528;BME280;62320;51.520;6.818;2022-08-25T08:43:21;101098.69;;;27.89;47.01
4528;BME280;62320;51.520;6.818;2022-08-25T08:48:39;101123.03;;;28.22;48.14
4528;BME280;62320;51.520;6.818;2022-08-25T08:54:12;101126.88;;;28.31;47.44
4528;BME280;62320;51.520;6.818;2022-08-25T08:59:30;101110.03;;;28.31;47.49
4528;BME280;62320;51.520;6.818;2022-08-25T09:04:44;101109.25;;;28.55;50.14
4528;BME280;62320;51.520;6.818;2022-08-25T09:09:47;101096.06;;;28.66;47.09
4528;BME280;62320;51.520;6.818;2022-08-25T09:20:44;101086.22;;;29.05;48.09
4528;BME280;62320;51.520;6.818;2022-08-25T09:25:59;101082.94;;;28.88;47.04
4528;BME280;62320;51.520;6.818;2022-08-25T09:31:18;101076.66;;;28.89;44.31
4528;BME280;62320;51.520;6.818;2022-08-25T09:36:22;101076.97;;;28.98;44.61
4528;BME280;62320;51.520;6.818;2022-08-25T09:41:40;101076.41;;;29.05;43.10
4528;BME280;62320;51.520;6.818;2022-08-25T09:47:03;101062.25;;;29.05;44.62
4528;BME280;62320;51.520;6.818;2022-08-25T10:02:35;101037.59;;;29.14;45.77
4528;BME280;62320;51.520;6.818;2022-08-25T10:07:48;101040.56;;;29.22;46.57
4528;BME280;62320;51.520;6.818;2022-08-25T10:12:52;101032.59;;;29.22;46.99
4528;BME280;62320;51.520;6.818;2022-08-25T10:18:21;101032.38;;;29.25;43.57
4528;BME280;62320;51.520;6.818;2022-08-25T10:23:26;101020.00;;;29.24;44.18
4528;BME280;62320;51.520;6.818;2022-08-25T10:28:54;101023.44;;;29.26;46.04
4528;BME280;62320;51.520;6.818;2022-08-25T10:39:34;101018.38;;;29.34;44.36
4528;BME280;62320;51.520;6.818;2022-08-25T10:50:29;100997.06;;;29.34;41.35
4528;BME280;62320;51.520;6.818;2022-08-25T11:00:54;100980.19;;;29.57;41.75
4528;BME280;62320;51.520;6.818;2022-08-25T11:06:06;100980.91;;;29.48;41.62
4528;BME280;62320;51.520;6.818;2022-08-25T11:11:35;100972.38;;;29.43;45.15
4528;BME280;62320;51.520;6.818;2022-08-25T11:16:41;100967.97;;;29.54;43.21
4528;BME280;62320;51.520;6.818;2022-08-25T11:22:17;100971.94;;;29.60;44.31
4528;BME280;62320;51.520;6.818;2022-08-25T11:27:23;100967.63;;;29.70;44.12
4528;BME280;62320;51.520;6.818;2022-08-25T11:32:27;100955.59;;;29.53;45.33
4528;BME280;62320;51.520;6.818;2022-08-25T11:37:39;100953.72;;;29.67;44.22
4528;BME280;62320;51.520;6.818;2022-08-25T11:42:57;100953.84;;;29.76;43.10
4528;BME280;62320;51.520;6.818;2022-08-25T11:53:21;100935.69;;;29.81;43.71
4528;BME280;62320;51.520;6.818;2022-08-25T11:58:32;100934.38;;;29.87;43.75
4528;BME280;62320;51.520;6.818;2022-08-25T12:29:48;100901.44;;;30.21;43.51
4528;BME280;62320;51.520;6.818;2022-08-25T12:50:41;100874.63;;;30.22;40.86
4528;BME280;62320;51.520;6.818;2022-08-25T12:55:48;100877.78;;;30.27;41.41
4528;BME280;62320;51.520;6.818;2022-08-25T13:01:09;100872.09;;;30.32;43.35
4528;BME280;62320;51.520;6.818;2022-08-25T13:17:28;100868.41;;;30.44;42.93
4528;BME280;62320;51.520;6.818;2022-08-25T13:22:34;100859.25;;;30.37;43.11
4528;BME280;62320;51.520;6.818;2022-08-25T13:27:36;100826.38;;;30.14;42.79
4528;BME280;62320;51.520;6.818;2022-08-25T13:32:37;100842.97;;;30.40;41.30
4528;BME280;62320;51.520;6.818;2022-08-25T13:37:40;100844.53;;;30.43;41.70
4528;BME280;62320;51.520;6.818;2022-08-25T13:42:43;100838.25;;;30.44;43.18
4528;BME280;62320;51.520;6.818;2022-08-25T13:47:54;100820.50;;;30.43;42.57
4528;BME280;62320;51.520;6.818;2022-08-25T13:53:04;100828.81;;;30.60;42.47
4528;BME280;62320;51.520;6.818;2022-08-25T13:58:13;100834.50;;;30.78;42.03
4528;BME280;62320;51.520;6.818;2022-08-25T14:08:37;100818.09;;;30.82;38.03
4528;BME280;62320;51.520;6.818;2022-08-25T14:13:41;100802.75;;;30.64;40.83
4528;BME280;62320;51.520;6.818;2022-08-25T14:18:49;100808.22;;;30.83;37.80
4528;BME280;62320;51.520;6.818;2022-08-25T14:23:53;100812.00;;;30.60;40.95
4528;BME280;62320;51.520;6.818;2022-08-25T14:28:55;100796.13;;;30.79;39.97
4528;BME280;62320;51.520;6.818;2022-08-25T14:34:04;100791.69;;;30.68;41.07
4528;BME280;62320;51.520;6.818;2022-08-25T14:39:06;100768.91;;;30.53;42.07
4528;BME280;62320;51.520;6.818;2022-08-25T14:44:09;100800.72;;;30.88;41.25
4528;BME280;62320;51.520;6.818;2022-08-25T14:49:16;100791.84;;;30.87;40.53
4528;BME280;62320;51.520;6.818;2022-08-25T14:54:26;100791.41;;;31.24;36.61
4528;BME280;62320;51.520;6.818;2022-08-25T14:59:29;100792.31;;;31.13;39.00
4528;BME280;62320;51.520;6.818;2022-08-25T15:04:31;100770.25;;;31.11;39.58
4528;BME280;62320;51.520;6.818;2022-08-25T15:09:33;100768.53;;;31.10;40.73
4528;BME280;62320;51.520;6.818;2022-08-25T15:14:34;100762.16;;;31.22;37.51
4528;BME280;62320;51.520;6.818;2022-08-25T15:19:36;100766.78;;;31.20;40.75
4528;BME280;62320;51.520;6.818;2022-08-25T15:24:37;100763.88;;;31.53;38.12
4528;BME280;62320;51.520;6.818;2022-08-25T15:29:40;100752.84;;;31.17;38.51
4528;BME280;62320;51.520;6.818;2022-08-25T15:34:41;100746.97;;;31.23;39.11
4528;BME280;62320;51.520;6.818;2022-08-25T15:39:44;100740.84;;;31.11;41.14
4528;BME280;62320;51.520;6.818;2022-08-25T15:44:47;100750.97;;;31.08;39.62
4528;BME280;62320;51.520;6.818;2022-08-25T15:50:02;100756.25;;;31.49;35.82
4528;BME280;62320;51.520;6.818;2022-08-25T15:55:05;100757.16;;;31.59;35.44
4528;BME280;62320;51.520;6.818;2022-08-25T16:00:08;100749.69;;;31.53;36.60
4528;BME280;62320;51.520;6.818;2022-08-25T16:05:16;100739.84;;;31.33;40.78
4528;BME280;62320;51.520;6.818;2022-08-25T16:10:26;100739.50;;;31.17;41.10
4528;BME280;62320;51.520;6.818;2022-08-25T16:15:27;100737.31;;;31.11;37.47
4528;BME280;62320;51.520;6.818;2022-08-25T16:20:31;100743.78;;;31.08;40.15
4528;BME280;62320;51.520;6.818;2022-08-25T16:25:38;100739.22;;;31.20;39.70
4528;BME280;62320;51.520;6.818;2022-08-25T16:30:46;100745.00;;;31.25;38.16
4528;BME280;62320;51.520;6.818;2022-08-25T16:36:06;100740.28;;;31.38;39.48
4528;BME280;62320;51.520;6.818;2022-08-25T16:41:14;100737.63;;;31.17;39.36
4528;BME280;62320;51.520;6.818;2022-08-25T16:46:18;100727.63;;;31.40;35.97
4528;BME280;62320;51.520;6.818;2022-08-25T16:51:21;100731.97;;;31.31;36.63
4528;BME280;62320;51.520;6.818;2022-08-25T16:56:32;100735.75;;;31.29;37.36
4528;BME280;62320;51.520;6.818;2022-08-25T17:01:35;100739.22;;;31.20;37.71
4528;BME280;62320;51.520;6.818;2022-08-25T17:06:39;100733.88;;;31.20;38.06
4528;BME280;62320;51.520;6.818;2022-08-25T17:11:50;100738.25;;;31.00;38.60
4528;BME280;62320;51.520;6.818;2022-08-25T17:16:54;100743.22;;;31.05;37.86
4528;BME280;62320;51.520;6.818;2022-08-25T17:21:56;100723.28;;;30.88;37.48
4528;BME280;62320;51.520;6.818;2022-08-25T17:27:00;100749.38;;;30.84;41.31
4528;BME280;62320;51.520;6.818;2022-08-25T17:32:02;100703.81;;;30.65;40.42
4528;BME280;62320;51.520;6.818;2022-08-25T17:37:04;100710.81;;;30.77;38.34
4528;BME280;62320;51.520;6.818;2022-08-25T17:42:06;100734.44;;;30.82;39.55
4528;BME280;62320;51.520;6.818;2022-08-25T17:47:09;100733.00;;;30.57;41.30
4528;BME280;62320;51.520;6.818;2022-08-25T17:52:11;100712.03;;;30.53;39.76
4528;BME280;62320;51.520;6.818;2022-08-25T17:57:13;100736.84;;;30.64;41.08
4528;BME280;62320;51.520;6.818;2022-08-25T18:02:16;100748.25;;;30.66;41.20
4528;BME280;62320;51.520;6.818;2022-08-25T18:07:17;100746.53;;;30.65;38.88
4528;BME280;62320;51.520;6.818;2022-08-25T18:12:19;100754.34;;;30.57;41.23
4528;BME280;62320;51.520;6.818;2022-08-25T18:17:21;100750.88;;;30.46;41.54
4528;BME280;62320;51.520;6.818;2022-08-25T18:22:23;100760.72;;;30.45;41.21
4528;BME280;62320;51.520;6.818;2022-08-25T18:27:25;100758.66;;;30.38;39.49
4528;BME280;62320;51.520;6.818;2022-08-25T18:32:27;100747.41;;;30.23;41.66
4528;BME280;62320;51.520;6.818;2022-08-25T18:37:29;100728.91;;;29.99;40.31
4528;BME280;62320;51.520;6.818;2022-08-25T18:42:58;100766.94;;;30.12;40.67
4528;BME280;62320;51.520;6.818;2022-08-25T18:48:00;100747.00;;;29.96;41.63
4528;BME280;62320;51.520;6.818;2022-08-25T18:53:02;100768.44;;;29.94;41.52
4528;BME280;62320;51.520;6.818;2022-08-25T18:58:06;100761.06;;;29.87;41.60
4528;BME280;62320;51.520;6.818;2022-08-25T19:03:10;100763.81;;;29.74;41.84
4528;BME280;62320;51.520;6.818;2022-08-25T19:08:14;100770.50;;;29.69;41.82
4528;BME280;62320;51.520;6.818;2022-08-25T19:13:21;100774.72;;;29.60;42.05
4528;BME280;62320;51.520;6.818;2022-08-25T19:18:23;100780.03;;;29.38;42.63
4528;BME280;62320;51.520;6.818;2022-08-25T19:23:29;100780.75;;;29.29;43.44
4528;BME280;62320;51.520;6.818;2022-08-25T19:28:31;100777.22;;;29.17;43.05
4528;BME280;62320;51.520;6.818;2022-08-25T19:33:34;100770.88;;;29.07;43.35
4528;BME280;62320;51.520;6.818;2022-08-25T19:38:45;100769.16;;;28.95;43.02
4528;BME280;62320;51.520;6.818;2022-08-25T19:43:48;100771.56;;;28.87;43.07
4528;BME280;62320;51.520;6.818;2022-08-25T19:48:57;100775.41;;;28.83;43.76
4528;BME280;62320;51.520;6.818;2022-08-25T19:54:02;100767.13;;;28.64;43.58
4528;BME280;62320;51.520;6.818;2022-08-25T19:59:03;100764.03;;;28.57;43.44
4528;BME280;62320;51.520;6.818;2022-08-25T20:04:05;100760.34;;;28.47;45.39
4528;BME280;62320;51.520;6.818;2022-08-25T20:09:07;100764.22;;;28.43;44.10
4528;BME280;62320;51.520;6.818;2022-08-25T20:14:29;100757.47;;;28.26;44.44
4528;BME280;62320;51.520;6.818;2022-08-25T20:19:32;100757.81;;;28.22;44.70
4528;BME280;62320;51.520;6.818;2022-08-25T20:24:34;100749.63;;;28.12;45.23
4528;BME280;62320;51.520;6.818;2022-08-25T20:29:56;100760.28;;;28.12;45.00
4528;BME280;62320;51.520;6.818;2022-08-25T20:34:59;100765.09;;;28.07;45.00
4528;BME280;62320;51.520;6.818;2022-08-25T20:40:01;100770.84;;;28.01;46.54
4528;BME280;62320;51.520;6.818;2022-08-25T20:45:04;100777.53;;;27.94;44.81
4528;BME280;62320;51.520;6.818;2022-08-25T20:50:06;100770.88;;;27.76;45.15
4528;BME280;62320;51.520;6.818;2022-08-25T20:55:08;100780.47;;;27.66;45.08
4528;BME280;62320;51.520;6.818;2022-08-25T21:00:11;100781.97;;;27.45;45.57
4528;BME280;62320;51.520;6.818;2022-08-25T21:05:13;100779.91;;;27.36;45.36
4528;BME280;62320;51.520;6.818;2022-08-25T21:10:14;100768.03;;;27.16;46.33
4528;BME280;62320;51.520;6.818;2022-08-25T21:15:16;100786.69;;;27.02;48.82
4528;BME280;62320;51.520;6.818;2022-08-25T21:20:20;100749.75;;;26.72;47.23
4528;BME280;62320;51.520;6.818;2022-08-25T21:25:21;100781.38;;;26.90;46.81
4528;BME280;62320;51.520;6.818;2022-08-25T21:30:23;100791.22;;;26.61;49.81
4528;BME280;62320;51.520;6.818;2022-08-25T21:35:26;100788.69;;;26.33;51.17
4528;BME280;62320;51.520;6.818;2022-08-25T21:40:33;100789.13;;;26.39;49.15
4528;BME280;62320;51.520;6.818;2022-08-25T21:45:39;100789.22;;;26.38;47.80
4528;BME280;62320;51.520;6.818;2022-08-25T21:50:47;100783.03;;;26.10;52.02
4528;BME280;62320;51.520;6.818;2022-08-25T21:55:48;100778.09;;;26.04;49.08
4528;BME280;62320;51.520;6.818;2022-08-25T22:00:50;100787.50;;;26.10;48.61
4528;BME280;62320;51.520;6.818;2022-08-25T22:05:53;100781.63;;;25.77;51.44
4528;BME280;62320;51.520;6.818;2022-08-25T22:10:55;100783.94;;;25.69;50.46
4528;BME280;62320;51.520;6.818;2022-08-25T22:15:56;100776.09;;;25.53;53.80
4528;BME280;62320;51.520;6.818;2022-08-25T22:20:58;100769.66;;;25.13;53.24
4528;BME280;62320;51.520;6.818;2022-08-25T22:26:07;100775.53;;;25.18;52.03
4528;BME280;62320;51.520;6.818;2022-08-25T22:31:09;100786.78;;;25.22;54.27
4528;BME280;62320;51.520;6.818;2022-08-25T22:36:14;100787.59;;;25.08;54.07
4528;BME280;62320;51.520;6.818;2022-08-25T22:41:17;100781.53;;;24.92;56.41
4528;BME280;62320;51.520;6.818;2022-08-25T22:46:23;100786.69;;;25.09;51.93
4528;BME280;62320;51.520;6.818;2022-08-25T22:51:27;100793.69;;;24.81;56.65
4528;BME280;62320;51.520;6.818;2022-08-25T22:56:34;100786.06;;;24.74;52.87
4528;BME280;62320;51.520;6.818;2022-08-25T23:01:37;100791.88;;;24.65;53.79
4528;BME280;62320;51.520;6.818;2022-08-25T23:06:40;100793.69;;;24.49;55.18
4528;BME280;62320;51.520;6.818;2022-08-25T23:11:42;100797.09;;;24.51;54.91
4528;BME280;62320;51.520;6.818;2022-08-25T23:16:44;100797.38;;;24.31;55.47
4528;BME280;62320;51.520;6.818;2022-08-25T23:21:45;100804.03;;;24.38;54.69
4528;BME280;62320;51.520;6.818;2022-08-25T23:27:07;100799.78;;;24.36;54.69
4528;BME280;62320;51.520;6.818;2022-08-25T23:32:09;100811.88;;;24.24;58.79
4528;BME280;62320;51.520;6.818;2022-08-25T23:37:15;100816.25;;;24.25;56.51
4528;BME280;62320;51.520;6.818;2022-08-25T23:42:19;100806.53;;;24.26;55.52
4528;BME280;62320;51.520;6.818;2022-08-25T23:47:20;100779.78;;;23.99;54.93
4528;BME280;62320;51.520;6.818;2022-08-25T23:52:22;100809.19;;;24.10;59.68
4528;BME280;62320;51.520;6.818;2022-08-25T23:57:25;100796.09;;;23.91;57.21
